Time;durP1;ratioP1;P1;durP2;ratioP2;P2;SDS_P1;SDS_P2;PMS_P1;PMS_P2;Temp;Humidity;BMP_temperature;BMP_pressure;BME280_temperature;BME280_humidity;BME280_pressure;Samples;Min_cycle;Max_cycle;Signal;HPM_P1;HPM_P2
2021/12/26 00:01:50;;;;;;;15.13;13.80;;;;;;;4.49;76.09;92382.81;5066832;28;20221;-83
2021/12/26 00:04:16;;;;;;;16.43;14.80;;;;;;;4.13;76.93;92378.38;5067334;28;20186;-83
2021/12/26 00:06:43;;;;;;;16.70;15.30;;;;;;;4.48;76.48;92411.47;5069053;28;20262;-83
2021/12/26 00:09:08;;;;;;;16.07;14.67;;;;;;;4.20;76.76;92409.94;5067553;28;20190;-82
2021/12/26 00:11:34;;;;;;;16.60;15.00;;;;;;;4.07;77.57;92394.84;5049234;28;20227;-82
2021/12/26 00:13:59;;;;;;;14.47;13.13;;;;;;;4.10;77.71;92393.56;5049473;28;20182;-82
2021/12/26 00:16:25;;;;;;;15.80;14.33;;;;;;;3.99;77.59;92377.19;5067701;28;20217;-83
2021/12/26 00:18:51;;;;;;;16.00;14.27;;;;;;;4.31;77.33;92393.50;5069716;28;20208;-83
2021/12/26 00:21:19;;;;;;;15.37;14.00;;;;;;;4.32;76.69;92402.03;5067949;28;20264;-83
2021/12/26 00:23:46;;;;;;;16.43;14.87;;;;;;;4.14;77.00;92392.81;5071761;28;21647;-82
2021/12/26 00:26:12;;;;;;;15.37;13.97;;;;;;;4.22;77.18;92410.47;5071883;28;20381;-82
2021/12/26 00:28:37;;;;;;;16.23;14.70;;;;;;;4.27;77.21;92407.94;5070816;28;20241;-83
2021/12/26 00:31:04;;;;;;;14.63;13.33;;;;;;;4.20;76.88;92397.00;5071435;28;20229;-83
2021/12/26 00:33:31;;;;;;;13.57;12.47;;;;;;;4.09;77.37;92397.97;5072074;28;20182;-83
2021/12/26 00:35:57;;;;;;;14.93;13.73;;;;;;;4.10;77.49;92394.34;5051883;28;20225;-82
2021/12/26 00:38:23;;;;;;;13.93;12.73;;;;;;;4.32;76.76;92397.66;5071662;28;20184;-82
2021/12/26 00:40:49;;;;;;;15.10;13.90;;;;;;;4.26;76.57;92384.94;5070181;28;20221;-82
2021/12/26 00:43:14;;;;;;;15.13;13.93;;;;;;;4.38;76.82;92399.25;5071335;28;20229;-83
2021/12/26 00:45:40;;;;;;;17.13;15.40;;;;;;;4.47;76.26;92405.53;5071604;28;20225;-83
2021/12/26 00:48:07;;;;;;;14.97;13.67;;;;;;;4.45;76.07;92407.56;5070239;28;20249;-83
2021/12/26 00:50:34;;;;;;;14.37;13.10;;;;;;;3.91;76.28;92331.16;5069819;28;20232;-83
2021/12/26 00:52:59;;;;;;;14.13;12.93;;;;;;;4.01;76.88;92371.78;5071399;28;20200;-82
2021/12/26 00:55:25;;;;;;;14.87;13.57;;;;;;;3.89;77.02;92382.25;5068760;28;20189;-82
2021/12/26 00:57:51;;;;;;;14.43;13.03;;;;;;;3.81;77.70;92385.28;5072590;28;20181;-82
2021/12/26 01:00:22;;;;;;;14.57;13.43;;;;;;;4.31;76.28;92403.06;5070954;28;20261;-83
2021/12/26 01:02:48;;;;;;;13.80;12.63;;;;;;;3.95;77.25;92399.38;5071285;28;20272;-83
2021/12/26 01:05:14;;;;;;;15.10;13.03;;;;;;;3.79;77.21;92387.31;5071045;28;20204;-83
2021/12/26 01:10:21;;;;;;;14.17;13.03;;;;;;;4.02;77.27;92397.38;5070311;28;20204;-82
2021/12/26 01:12:48;;;;;;;12.87;11.97;;;;;;;3.89;77.29;92405.50;5070835;28;20212;-83
2021/12/26 01:15:13;;;;;;;11.47;10.67;;;;;;;3.63;77.71;92408.81;5052903;28;20204;-83
2021/12/26 01:17:42;;;;;;;11.43;10.70;;;;;;;3.66;77.69;92397.25;5070995;28;20315;-82
2021/12/26 01:20:13;;;;;;;11.93;11.20;;;;;;;3.46;78.37;92387.47;5053300;28;20216;-82
2021/12/26 01:22:38;;;;;;;12.33;11.43;;;;;;;3.58;78.16;92395.09;5060242;28;20220;-83
2021/12/26 01:25:06;;;;;;;13.30;12.23;;;;;;;3.51;78.79;92390.13;5072049;28;20212;-85
2021/12/26 01:27:31;;;;;;;15.60;14.20;;;;;;;3.32;79.71;92381.13;5066674;28;20240;-82
2021/12/26 01:29:57;;;;;;;15.23;13.63;;;;;;;3.25;80.10;92370.97;5070483;28;20220;-82
2021/12/26 01:32:22;;;;;;;15.23;13.83;;;;;;;3.16;81.28;92379.38;5070463;28;20240;-81
2021/12/26 01:34:48;;;;;;;15.33;13.90;;;;;;;3.19;81.17;92371.16;5067310;28;20227;-81
2021/12/26 01:37:14;;;;;;;16.17;14.70;;;;;;;3.54;79.43;92384.47;5069919;28;20225;-81
2021/12/26 01:39:40;;;;;;;14.67;13.37;;;;;;;3.53;80.12;92382.94;5068970;28;20189;-82
2021/12/26 01:42:08;;;;;;;13.27;12.27;;;;;;;3.48;79.56;92374.31;5068024;28;20226;-81
2021/12/26 01:44:34;;;;;;;14.73;13.23;;;;;;;3.35;80.56;92365.16;5069411;28;20193;-82
2021/12/26 01:47:00;;;;;;;15.53;14.00;;;;;;;3.52;80.17;92372.84;5068603;28;20233;-82
2021/12/26 01:49:29;;;;;;;17.00;15.53;;;;;;;3.82;79.64;92363.59;5049680;28;20206;-81
2021/12/26 01:51:57;;;;;;;14.13;12.93;;;;;;;3.93;79.24;92351.56;5070492;28;20288;-82
2021/12/26 01:54:37;;;;;;;15.67;14.30;;;;;;;3.98;78.22;92367.13;5069314;28;20189;-82
2021/12/26 01:57:05;;;;;;;17.30;15.53;;;;;;;3.76;78.49;92343.94;5069108;28;20221;-81
2021/12/26 01:59:31;;;;;;;17.00;15.20;;;;;;;3.93;78.69;92359.31;5070601;28;20259;-82
2021/12/26 02:01:58;;;;;;;18.67;16.10;;;;;;;4.11;77.82;92364.91;5070237;28;20237;-82
2021/12/26 02:04:28;;;;;;;18.03;16.33;;;;;;;4.17;77.80;92353.59;5070250;28;20265;-81
2021/12/26 02:06:55;;;;;;;21.80;17.47;;;;;;;4.29;77.44;92354.22;5069833;28;20274;-81
2021/12/26 02:09:20;;;;;;;19.43;17.50;;;;;;;4.37;77.02;92353.75;5067752;28;20185;-82
2021/12/26 02:11:46;;;;;;;21.07;17.17;;;;;;;4.39;76.27;92319.94;5070234;28;20233;-82
2021/12/26 02:14:11;;;;;;;18.80;16.90;;;;;;;4.49;76.40;92338.88;5048621;28;20255;-82
2021/12/26 02:16:37;;;;;;;19.93;17.33;;;;;;;4.46;76.00;92341.16;5069249;28;20234;-81
2021/12/26 02:19:03;;;;;;;18.50;16.37;;;;;;;4.59;75.78;92364.00;5070726;28;20185;-81
2021/12/26 02:24:22;;;;;;;17.77;15.87;;;;;;;3.99;76.53;92297.16;5069263;28;20203;-82
2021/12/26 02:29:32;;;;;;;16.07;14.67;;;;;;;3.98;77.05;92316.25;5068090;28;20232;-82
2021/12/26 02:31:57;;;;;;;15.33;13.93;;;;;;;3.93;77.02;92313.63;5068681;28;20508;-81
2021/12/26 02:34:23;;;;;;;17.10;15.43;;;;;;;4.25;77.04;92358.31;5070263;28;20865;-82
2021/12/26 02:36:48;;;;;;;17.27;15.57;;;;;;;4.24;77.33;92353.38;5067855;28;20225;-82
2021/12/26 02:39:15;;;;;;;16.40;14.80;;;;;;;3.99;77.09;92330.72;5069301;28;20185;-81
2021/12/26 02:41:42;;;;;;;17.30;15.53;;;;;;;3.96;77.96;92369.16;5068077;28;20225;-81
2021/12/26 02:44:07;;;;;;;16.50;14.90;;;;;;;4.12;77.81;92363.09;5067700;28;20209;-82
2021/12/26 02:46:33;;;;;;;16.47;14.90;;;;;;;4.15;77.72;92363.41;5069309;28;20240;-82
2021/12/26 02:48:58;;;;;;;15.93;14.53;;;;;;;4.04;77.16;92322.22;5068979;28;20193;-82
2021/12/26 02:51:24;;;;;;;18.43;16.60;;;;;;;4.12;77.13;92350.19;5066981;28;20223;-81
2021/12/26 02:53:50;;;;;;;19.20;16.27;;;;;;;4.10;77.60;92355.59;5069689;28;20186;-81
2021/12/26 02:56:16;;;;;;;18.37;16.67;;;;;;;4.27;77.20;92356.28;5065428;28;20229;-81
2021/12/26 02:58:42;;;;;;;17.87;16.10;;;;;;;4.30;77.01;92317.03;5068597;28;20204;-81
2021/12/26 03:01:15;;;;;;;18.27;16.33;;;;;;;4.44;76.77;92349.16;5067525;28;20265;-82
2021/12/26 03:03:41;;;;;;;18.10;16.20;;;;;;;4.36;76.95;92357.38;5068159;28;20205;-82
2021/12/26 03:06:15;;;;;;;21.17;17.03;;;;;;;4.48;76.56;92362.38;5069190;28;20308;-81
2021/12/26 03:08:41;;;;;;;22.67;18.53;;;;;;;4.32;76.72;92358.91;5050606;28;20196;-82
2021/12/26 03:11:07;;;;;;;18.90;17.00;;;;;;;4.46;76.33;92357.47;5067625;28;20264;-81
2021/12/26 03:13:33;;;;;;;18.83;16.33;;;;;;;4.33;76.20;92347.53;5069760;28;20211;-81
2021/12/26 03:15:59;;;;;;;17.47;15.67;;;;;;;4.24;77.29;92364.50;5067865;28;20232;-82
2021/12/26 03:18:25;;;;;;;16.63;15.13;;;;;;;4.22;76.86;92339.94;5068971;28;20209;-81
2021/12/26 03:20:51;;;;;;;16.27;14.67;;;;;;;4.05;76.97;92311.66;5068740;28;20742;-81
2021/12/26 03:23:21;;;;;;;16.17;14.53;;;;;;;4.13;76.87;92307.84;5068775;28;20304;-81
2021/12/26 03:25:46;;;;;;;15.57;14.17;;;;;;;4.26;77.35;92334.06;5068288;28;20299;-81
2021/12/26 03:28:13;;;;;;;15.03;13.80;;;;;;;4.51;76.61;92339.38;5066892;28;20192;-82
2021/12/26 03:30:39;;;;;;;15.10;13.87;;;;;;;4.53;76.66;92347.66;5068475;28;20233;-80
2021/12/26 03:33:07;;;;;;;16.57;15.10;;;;;;;4.64;76.30;92344.13;5069027;28;20189;-81
2021/12/26 03:35:34;;;;;;;15.07;13.70;;;;;;;4.28;76.71;92329.41;5066012;28;20248;-82
2021/12/26 03:38:01;;;;;;;14.67;13.37;;;;;;;4.25;76.70;92321.38;5069163;28;20197;-83
2021/12/26 03:40:27;;;;;;;15.17;13.77;;;;;;;4.52;76.54;92335.00;5067370;28;20243;-84
2021/12/26 03:42:53;;;;;;;14.77;13.57;;;;;;;4.54;75.56;92323.41;5066637;28;20209;-82
2021/12/26 03:45:20;;;;;;;16.63;15.17;;;;;;;4.84;75.37;92364.94;5067720;28;20200;-82
2021/12/26 03:47:49;;;;;;;16.23;14.73;;;;;;;4.72;75.22;92341.09;5068504;28;20280;-83
2021/12/26 03:50:16;;;;;;;17.63;16.03;;;;;;;4.65;75.54;92363.78;5050023;28;20186;-82
2021/12/26 03:52:42;;;;;;;16.27;14.67;;;;;;;4.52;75.56;92325.44;5069191;28;20195;-82
2021/12/26 03:55:07;;;;;;;17.00;15.57;;;;;;;4.97;75.19;92359.34;5067074;28;20630;-81
2021/12/26 03:57:33;;;;;;;16.90;15.50;;;;;;;4.60;75.75;92348.25;5071787;28;20193;-82
2021/12/26 03:59:58;;;;;;;14.50;13.17;;;;;;;4.47;75.63;92330.56;5072777;28;20236;-82
2021/12/26 04:02:24;;;;;;;15.70;14.13;;;;;;;4.71;75.39;92369.78;5070506;28;20228;-82
2021/12/26 04:04:49;;;;;;;14.33;12.93;;;;;;;4.73;75.41;92341.88;5073371;28;20200;-82
2021/12/26 04:07:15;;;;;;;15.13;13.60;;;;;;;4.97;74.25;92364.50;5071832;28;20224;-82
2021/12/26 04:09:41;;;;;;;14.23;13.03;;;;;;;4.69;74.88;92343.38;5051621;28;20194;-81
2021/12/26 04:12:07;;;;;;;14.20;12.90;;;;;;;4.70;75.95;92374.16;5072546;28;20226;-82
2021/12/26 04:14:32;;;;;;;14.03;12.87;;;;;;;4.29;75.86;92294.81;5072258;28;20197;-82
2021/12/26 04:16:58;;;;;;;13.03;11.93;;;;;;;4.82;75.11;92366.22;5070800;28;20285;-82
2021/12/26 04:19:23;;;;;;;15.53;13.83;;;;;;;4.78;75.61;92365.94;5048627;28;20189;-82
2021/12/26 04:21:49;;;;;;;13.33;12.23;;;;;;;4.46;76.19;92320.50;5070052;28;20229;-82
2021/12/26 04:24:14;;;;;;;12.87;11.83;;;;;;;4.76;75.74;92354.31;5070922;28;20280;-83
2021/12/26 04:26:41;;;;;;;14.10;12.70;;;;;;;4.50;75.40;92347.38;5071874;28;20225;-82
2021/12/26 04:29:08;;;;;;;13.43;12.40;;;;;;;4.70;75.87;92365.63;5072016;28;20189;-82
2021/12/26 04:31:33;;;;;;;14.50;13.00;;;;;;;4.74;75.85;92377.03;5054327;28;20233;-82
2021/12/26 04:33:59;;;;;;;14.53;13.33;;;;;;;4.78;75.44;92375.50;5070943;28;20237;-82
2021/12/26 04:36:25;;;;;;;14.23;12.90;;;;;;;4.73;75.69;92373.66;5069798;28;20228;-82
2021/12/26 04:38:50;;;;;;;13.63;12.53;;;;;;;4.39;75.93;92341.38;5054806;28;20189;-82
2021/12/26 04:41:16;;;;;;;14.80;13.30;;;;;;;4.87;75.72;92369.63;5070102;28;20217;-82
2021/12/26 04:43:42;;;;;;;12.27;11.47;;;;;;;4.35;75.55;92317.06;5071435;28;20213;-82
2021/12/26 04:46:08;;;;;;;14.57;13.23;;;;;;;4.70;76.05;92374.16;5071395;28;20233;-81
2021/12/26 04:48:40;;;;;;;14.90;13.67;;;;;;;4.95;74.89;92376.91;5069390;28;20221;-83
2021/12/26 04:51:07;;;;;;;15.60;14.10;;;;;;;4.37;74.95;92286.56;5070960;28;20213;-82
2021/12/26 04:53:34;;;;;;;16.03;14.57;;;;;;;4.98;74.83;92384.16;5071370;28;20178;-82
2021/12/26 04:56:00;;;;;;;15.60;14.10;;;;;;;5.44;72.76;92381.81;5070255;28;20225;-82
2021/12/26 04:58:25;;;;;;;16.93;15.13;;;;;;;4.78;73.62;92355.59;5072617;28;20193;-82
2021/12/26 05:00:51;;;;;;;17.73;15.80;;;;;;;4.76;74.81;92368.00;5050946;28;20225;-82
2021/12/26 05:03:16;;;;;;;18.23;16.50;;;;;;;4.86;74.67;92378.41;5071682;28;20265;-82
2021/12/26 05:05:44;;;;;;;17.17;14.87;;;;;;;4.74;75.48;92372.66;5054734;28;20228;-82
2021/12/26 05:08:10;;;;;;;18.23;16.43;;;;;;;5.01;74.34;92385.50;5050415;28;20220;-83
2021/12/26 05:10:36;;;;;;;18.13;16.33;;;;;;;4.98;74.52;92399.69;5069590;28;20221;-83
2021/12/26 05:13:03;;;;;;;17.93;16.13;;;;;;;4.90;75.19;92394.97;5070380;28;20679;-83
2021/12/26 05:15:29;;;;;;;18.07;16.33;;;;;;;4.78;75.12;92365.16;5067729;28;20275;-83
2021/12/26 05:17:55;;;;;;;19.57;17.67;;;;;;;4.65;76.58;92401.78;5052783;28;20186;-84
2021/12/26 05:20:22;;;;;;;20.13;18.33;;;;;;;4.96;75.60;92412.06;5067392;28;20272;-82
2021/12/26 05:22:49;;;;;;;19.93;17.37;;;;;;;4.93;76.25;92391.88;5066964;28;20296;-83
2021/12/26 05:25:15;;;;;;;20.13;17.57;;;;;;;4.86;76.77;92404.28;5070159;28;20252;-84
2021/12/26 05:27:41;;;;;;;26.70;22.97;;;;;;;4.82;78.07;92400.59;5068218;28;20181;-83
2021/12/26 05:30:11;;;;;;;30.33;23.40;;;;;;;4.78;78.68;92391.81;5051001;28;20204;-80
2021/12/26 05:32:37;;;;;;;25.07;20.17;;;;;;;4.59;80.21;92393.22;5069437;28;20194;-85
2021/12/26 05:35:03;;;;;;;22.70;19.37;;;;;;;4.88;79.82;92391.88;5068195;28;20196;-85
2021/12/26 05:37:28;;;;;;;22.67;20.00;;;;;;;4.73;81.23;92404.69;5049852;28;20222;-83
2021/12/26 05:39:55;;;;;;;21.97;19.73;;;;;;;4.89;81.15;92396.00;5050907;28;20200;-81
2021/12/26 05:42:20;;;;;;;23.20;19.37;;;;;;;4.67;83.12;92374.66;5070492;28;20237;-80
2021/12/26 05:44:48;;;;;;;22.77;19.13;;;;;;;4.52;85.01;92413.31;5065163;28;20197;-80
2021/12/26 05:47:14;;;;;;;21.73;19.23;;;;;;;4.67;85.20;92421.19;5064339;28;20218;-80
2021/12/26 05:49:40;;;;;;;17.37;15.63;;;;;;;4.44;85.28;92354.34;5051642;28;20209;-82
2021/12/26 05:52:07;;;;;;;17.13;15.60;;;;;;;4.17;86.88;92351.00;5067447;28;20233;-83
2021/12/26 05:54:33;;;;;;;17.67;16.20;;;;;;;4.47;87.83;92400.34;5070237;28;20205;-82
2021/12/26 05:56:59;;;;;;;16.47;14.87;;;;;;;4.19;87.81;92351.53;5068749;28;20285;-82
2021/12/26 05:59:24;;;;;;;18.53;16.70;;;;;;;4.78;87.23;92391.81;5047863;28;20205;-82
2021/12/26 06:01:50;;;;;;;21.57;18.60;;;;;;;4.82;87.40;92381.75;5068928;28;20243;-84
2021/12/26 06:04:15;;;;;;;18.83;16.83;;;;;;;4.73;87.94;92367.72;5069564;28;20239;-83
2021/12/26 06:06:43;;;;;;;20.83;18.57;;;;;;;4.74;88.71;92371.88;5067773;28;20232;-83
2021/12/26 06:09:09;;;;;;;24.13;19.27;;;;;;;4.78;88.79;92365.16;5068824;28;20194;-82
2021/12/26 06:11:35;;;;;;;26.33;20.40;;;;;;;4.67;88.81;92322.16;5068269;28;20217;-84
2021/12/26 06:14:01;;;;;;;32.80;23.10;;;;;;;4.82;88.59;92330.78;5068107;28;20302;-84
2021/12/26 06:16:26;;;;;;;27.70;21.57;;;;;;;4.63;89.35;92331.47;5070221;28;20222;-86
2021/12/26 06:18:51;;;;;;;23.80;20.70;;;;;;;4.89;89.42;92353.84;5068167;28;20197;-84
2021/12/26 06:21:17;;;;;;;25.50;21.33;;;;;;;4.96;88.96;92350.00;5068055;28;20233;-85
2021/12/26 06:23:50;;;;;;;22.37;19.87;;;;;;;4.66;88.67;92342.09;5068799;28;20205;-84
2021/12/26 06:26:16;;;;;;;20.93;18.83;;;;;;;4.69;89.62;92354.50;5067214;28;20284;-84
2021/12/26 06:28:41;;;;;;;19.47;17.53;;;;;;;4.65;89.85;92366.34;5070412;28;20197;-85
2021/12/26 06:31:06;;;;;;;18.80;16.90;;;;;;;4.60;88.85;92326.78;5067247;28;20226;-85
2021/12/26 06:33:32;;;;;;;20.17;18.20;;;;;;;4.77;90.19;92332.56;5063719;28;20190;-84
2021/12/26 06:35:57;;;;;;;21.07;17.90;;;;;;;4.14;90.47;92297.25;5068395;28;20222;-85
2021/12/26 06:38:23;;;;;;;20.60;18.47;;;;;;;4.71;90.52;92352.47;5065751;28;20201;-81
2021/12/26 06:40:48;;;;;;;21.00;18.90;;;;;;;4.55;90.50;92340.47;5065378;28;20304;-81
2021/12/26 06:43:14;;;;;;;20.07;18.00;;;;;;;4.75;90.13;92335.41;5065129;28;20209;-83
2021/12/26 06:45:39;;;;;;;22.57;18.50;;;;;;;4.87;90.05;92336.00;5048155;28;20229;-85
2021/12/26 06:48:06;;;;;;;21.83;19.47;;;;;;;4.96;87.94;92318.97;5069092;28;20186;-80
2021/12/26 06:50:32;;;;;;;23.10;20.63;;;;;;;4.77;88.51;92320.44;5067854;28;20245;-89
2021/12/26 06:52:57;;;;;;;22.03;19.83;;;;;;;4.85;87.46;92347.63;5068063;28;20224;-86
2021/12/26 06:55:23;;;;;;;22.23;19.93;;;;;;;4.88;88.13;92339.38;5067898;28;20954;-80
2021/12/26 06:57:48;;;;;;;21.90;19.00;;;;;;;4.65;88.74;92355.25;5065045;28;20205;-84
2021/12/26 07:00:16;;;;;;;22.80;19.90;;;;;;;5.05;87.43;92383.94;5048411;28;20190;-82
2021/12/26 07:02:42;;;;;;;21.63;19.43;;;;;;;4.96;87.89;92375.13;5067896;28;20237;-85
2021/12/26 07:05:11;;;;;;;22.50;20.10;;;;;;;4.86;85.72;92383.59;5067081;28;20238;-80
2021/12/26 07:07:37;;;;;;;22.60;19.63;;;;;;;4.59;86.93;92385.44;5066324;28;20173;-81
2021/12/26 07:10:03;;;;;;;21.43;19.27;;;;;;;4.70;87.59;92373.41;5066746;28;20229;-78
2021/12/26 07:12:28;;;;;;;20.50;18.33;;;;;;;4.91;88.13;92403.53;5067499;28;20263;-76
2021/12/26 07:14:54;;;;;;;21.83;19.63;;;;;;;5.04;87.75;92399.72;5065867;28;20191;-77
2021/12/26 07:17:19;;;;;;;21.60;19.30;;;;;;;4.76;88.88;92403.44;5068476;28;20221;-80
2021/12/26 07:19:45;;;;;;;26.17;19.83;;;;;;;4.69;89.30;92416.56;5068178;28;20211;-77
2021/12/26 07:22:10;;;;;;;26.13;21.67;;;;;;;4.52;90.72;92428.84;5067589;28;20236;-77
2021/12/26 07:24:36;;;;;;;29.57;24.83;;;;;;;4.47;91.93;92412.50;5067907;28;20209;-78
2021/12/26 07:27:01;;;;;;;27.83;23.77;;;;;;;4.75;90.03;92423.31;5065350;28;20244;-78
2021/12/26 07:29:27;;;;;;;29.63;24.50;;;;;;;4.52;90.15;92410.75;5069028;28;21080;-77
2021/12/26 07:31:52;;;;;;;28.93;24.60;;;;;;;4.72;89.63;92403.13;5067579;28;20233;-78
2021/12/26 07:34:18;;;;;;;29.60;24.13;;;;;;;4.66;89.94;92398.16;5051849;28;20212;-78
2021/12/26 07:36:43;;;;;;;23.40;20.53;;;;;;;4.90;89.92;92409.72;5065979;28;20217;-79
2021/12/26 07:39:09;;;;;;;22.77;20.47;;;;;;;5.04;89.02;92394.56;5050072;28;20200;-81
2021/12/26 07:41:34;;;;;;;22.07;19.57;;;;;;;5.07;89.31;92414.75;5068612;28;20213;-78
2021/12/26 07:44:00;;;;;;;21.20;17.97;;;;;;;5.05;89.37;92407.22;5065882;28;20220;-77
2021/12/26 07:46:26;;;;;;;19.17;17.30;;;;;;;4.97;89.97;92380.03;5068559;28;20224;-79
2021/12/26 07:48:51;;;;;;;18.57;16.77;;;;;;;4.92;90.49;92381.78;5065356;28;20200;-80
2021/12/26 07:51:19;;;;;;;18.80;16.80;;;;;;;5.18;90.71;92387.91;5066539;28;20225;-82
2021/12/26 07:53:46;;;;;;;20.00;17.93;;;;;;;5.43;90.80;92416.50;5068221;28;20207;-83
2021/12/26 07:56:12;;;;;;;18.73;16.97;;;;;;;5.40;90.36;92420.34;5065988;28;20240;-82
2021/12/26 07:58:37;;;;;;;19.90;17.90;;;;;;;5.27;90.67;92376.03;5068271;28;20197;-84
2021/12/26 08:01:03;;;;;;;19.77;17.67;;;;;;;5.27;90.71;92357.94;5048847;28;20232;-83
2021/12/26 08:03:28;;;;;;;18.70;16.77;;;;;;;5.73;90.26;92398.47;5047325;28;20319;-81
2021/12/26 08:05:54;;;;;;;18.97;16.83;;;;;;;5.71;90.55;92388.38;5067396;28;20233;-82
2021/12/26 08:08:19;;;;;;;19.17;17.33;;;;;;;5.76;90.23;92367.69;5066888;28;20197;-83
2021/12/26 08:10:45;;;;;;;18.60;16.80;;;;;;;6.12;89.55;92397.88;5066633;28;20217;-84
2021/12/26 08:13:10;;;;;;;19.97;17.53;;;;;;;5.82;88.84;92343.38;5066809;28;20208;-82
2021/12/26 08:15:35;;;;;;;18.07;15.90;;;;;;;5.85;88.93;92342.13;5066289;28;20236;-83
2021/12/26 08:18:01;;;;;;;18.70;17.00;;;;;;;6.28;88.90;92375.34;5047541;28;20189;-82
2021/12/26 08:20:26;;;;;;;20.70;18.03;;;;;;;5.87;88.73;92301.16;5064351;28;20233;-83
2021/12/26 08:22:52;;;;;;;19.57;17.50;;;;;;;6.04;88.49;92330.19;5066424;28;20229;-82
2021/12/26 08:25:17;;;;;;;21.70;17.53;;;;;;;6.16;87.93;92341.88;5063854;28;20244;-81
2021/12/26 08:27:43;;;;;;;17.07;15.57;;;;;;;6.52;86.51;92353.81;5048289;28;20194;-80
2021/12/26 08:30:09;;;;;;;17.10;15.37;;;;;;;6.73;86.63;92377.16;5065307;28;20194;-80
2021/12/26 08:32:38;;;;;;;17.13;15.43;;;;;;;6.50;85.95;92340.38;5066289;28;20198;-81
2021/12/26 08:35:06;;;;;;;17.50;15.93;;;;;;;6.86;84.82;92400.78;5045463;28;20198;-80
2021/12/26 08:37:32;;;;;;;17.97;16.47;;;;;;;7.17;82.68;92404.09;5065014;28;20232;-78
2021/12/26 08:39:57;;;;;;;18.23;16.20;;;;;;;7.08;83.80;92400.50;5066475;28;20510;-82
2021/12/26 08:42:23;;;;;;;21.70;19.47;;;;;;;6.64;84.60;92334.63;5064571;28;20248;-81
2021/12/26 08:44:52;;;;;;;20.07;18.17;;;;;;;7.06;84.79;92384.41;5070232;28;20196;-81
2021/12/26 08:47:17;;;;;;;25.80;21.37;;;;;;;7.40;85.10;92395.75;5066701;28;20240;-83
2021/12/26 08:49:43;;;;;;;17.33;15.67;;;;;;;7.64;80.90;92400.06;5070246;28;20181;-81
2021/12/26 08:52:09;;;;;;;17.57;15.73;;;;;;;7.25;82.69;92378.41;5060264;28;20269;-81
2021/12/26 08:54:37;;;;;;;17.47;15.63;;;;;;;7.55;82.95;92406.88;5050990;28;20217;-78
2021/12/26 08:57:03;;;;;;;21.47;19.13;;;;;;;7.11;84.40;92380.00;5070064;28;20236;-84
2021/12/26 08:59:30;;;;;;;21.67;19.47;;;;;;;7.46;84.99;92399.88;5068393;28;20189;-80
2021/12/26 09:02:02;;;;;;;20.27;18.17;;;;;;;7.50;82.12;92393.88;5069434;28;20282;-81
2021/12/26 09:04:28;;;;;;;17.33;15.10;;;;;;;7.68;80.27;92385.53;5066726;28;20186;-79
2021/12/26 09:06:53;;;;;;;19.80;17.67;;;;;;;7.49;81.49;92361.19;5070582;28;20229;-79
2021/12/26 09:09:19;;;;;;;17.57;15.67;;;;;;;7.38;81.89;92351.06;5070025;28;20694;-90
2021/12/26 09:11:49;;;;;;;18.93;16.77;;;;;;;7.82;82.28;92380.53;5068933;28;20225;-82
2021/12/26 09:14:15;;;;;;;17.43;15.63;;;;;;;7.61;83.31;92366.84;5070541;28;20237;-84
2021/12/26 09:16:40;;;;;;;17.57;15.60;;;;;;;7.62;84.20;92355.41;5052220;28;20244;-85
2021/12/26 09:19:06;;;;;;;17.47;15.50;;;;;;;7.81;84.09;92382.34;5068326;28;20220;-82
2021/12/26 09:21:32;;;;;;;15.30;13.83;;;;;;;7.60;83.84;92336.72;5070998;28;20247;-84
2021/12/26 09:23:58;;;;;;;14.53;13.20;;;;;;;7.79;84.09;92335.06;5050682;28;20284;-88
2021/12/26 09:26:24;;;;;;;15.80;14.37;;;;;;;7.99;84.15;92371.34;5050844;28;20225;-88
2021/12/26 09:28:50;;;;;;;14.00;12.97;;;;;;;7.69;84.70;92327.31;5049703;28;20249;-86
2021/12/26 09:31:16;;;;;;;16.10;14.90;;;;;;;7.85;85.25;92374.78;5071586;28;20232;-86
2021/12/26 09:33:42;;;;;;;18.13;16.23;;;;;;;7.55;83.98;92276.22;5070705;28;20224;-87
2021/12/26 09:36:07;;;;;;;17.27;15.43;;;;;;;8.01;82.82;92353.66;5048790;28;20221;-90
2021/12/26 09:38:33;;;;;;;13.13;11.97;;;;;;;8.50;73.36;92384.09;5071535;28;20197;-88
2021/12/26 09:40:59;;;;;;;14.17;12.83;;;;;;;8.39;75.04;92393.00;5068792;28;20372;-81
2021/12/26 09:43:26;;;;;;;14.00;12.87;;;;;;;8.34;76.68;92396.41;5070168;28;20224;-81
2021/12/26 09:45:51;;;;;;;13.97;12.83;;;;;;;7.98;76.53;92343.78;5051868;28;20727;-82
2021/12/26 09:48:17;;;;;;;14.63;12.50;;;;;;;7.97;78.56;92355.22;5069644;28;20193;-83
2021/12/26 09:50:43;;;;;;;15.57;13.23;;;;;;;7.92;80.11;92404.63;5070209;28;20289;-83
2021/12/26 09:53:09;;;;;;;15.93;14.63;;;;;;;7.42;79.05;92230.06;5048402;28;20194;-82
2021/12/26 09:55:34;;;;;;;17.83;15.10;;;;;;;8.30;79.12;92379.00;5052477;28;20242;-90
2021/12/26 09:58:00;;;;;;;18.07;16.57;;;;;;;8.39;79.57;92385.19;5067718;28;20315;-85
2021/12/26 10:00:33;;;;;;;15.53;14.13;;;;;;;8.49;79.44;92392.91;5069400;28;20197;-86
2021/12/26 10:03:14;;;;;;;16.53;14.27;;;;;;;8.40;80.13;92381.53;5050847;28;20300;-78
2021/12/26 10:05:58;;;;;;;16.13;14.53;;;;;;;8.42;80.42;92390.59;5067927;28;20344;-79
2021/12/26 10:08:24;;;;;;;15.03;13.93;;;;;;;8.11;79.20;92358.78;5071366;28;20193;-77
2021/12/26 10:11:09;;;;;;;15.60;14.00;;;;;;;8.19;81.22;92396.44;5067049;28;20237;-76
2021/12/26 10:13:39;;;;;;;16.77;15.00;;;;;;;8.49;73.77;92398.13;5067126;28;20190;-79
2021/12/26 10:16:05;;;;;;;16.43;14.77;;;;;;;8.08;77.77;92377.53;5068001;28;20241;-80
2021/12/26 10:18:30;;;;;;;16.77;15.23;;;;;;;8.10;79.06;92385.84;5070169;28;20189;-90
2021/12/26 10:20:56;;;;;;;17.10;15.63;;;;;;;7.97;78.62;92347.44;5069543;28;20274;-82
2021/12/26 10:23:31;;;;;;;17.93;15.53;;;;;;;8.19;79.98;92405.03;5068821;28;20299;-87
2021/12/26 10:25:57;;;;;;;17.93;16.23;;;;;;;8.22;79.29;92395.16;5066987;28;20220;-80
2021/12/26 10:28:22;;;;;;;20.53;15.73;;;;;;;8.42;77.61;92395.06;5070452;28;20193;-84
2021/12/26 10:30:48;;;;;;;18.77;16.67;;;;;;;8.25;79.75;92389.44;5067984;28;20256;-84
2021/12/26 10:33:13;;;;;;;15.50;13.90;;;;;;;8.18;75.89;92403.50;5070995;28;20208;-86
2021/12/26 10:35:39;;;;;;;18.90;15.77;;;;;;;8.32;73.05;92362.09;5047633;28;20229;-83
2021/12/26 10:38:15;;;;;;;16.63;15.20;;;;;;;8.37;74.66;92401.06;5052603;28;20189;-79
2021/12/26 10:40:41;;;;;;;19.47;17.30;;;;;;;8.34;77.86;92412.00;5050003;28;20773;-85
2021/12/26 10:43:10;;;;;;;19.23;16.83;;;;;;;8.39;77.96;92400.78;5067048;28;20270;-92
2021/12/26 10:45:35;;;;;;;16.90;15.17;;;;;;;8.09;71.88;92345.28;5049747;28;20220;-87
2021/12/26 10:48:04;;;;;;;17.37;14.67;;;;;;;8.54;72.89;92403.28;5067145;28;20189;-91
2021/12/26 10:50:33;;;;;;;18.73;15.80;;;;;;;8.80;73.55;92389.03;5065165;28;20239;-91
2021/12/26 10:53:05;;;;;;;18.00;16.07;;;;;;;8.75;73.81;92371.63;5067049;28;20189;-91
2021/12/26 10:55:34;;;;;;;18.57;16.67;;;;;;;8.86;74.08;92364.53;5066971;28;20224;-91
2021/12/26 10:58:02;;;;;;;17.53;15.93;;;;;;;9.03;72.51;92380.50;5067165;28;20169;-90
2021/12/26 11:00:37;;;;;;;15.17;14.07;;;;;;;9.28;69.43;92388.09;5067890;28;20239;-91
2021/12/26 11:03:06;;;;;;;21.10;19.43;;;;;;;9.13;70.31;92393.44;5066665;28;20215;-91
2021/12/26 11:05:42;;;;;;;15.07;13.77;;;;;;;8.98;69.09;92375.38;5049933;28;20237;-91
2021/12/26 11:08:13;;;;;;;14.17;12.77;;;;;;;9.27;66.21;92389.94;5065695;28;20241;-91
2021/12/26 11:10:47;;;;;;;16.33;12.63;;;;;;;9.23;67.28;92396.72;5068152;28;20220;-90
2021/12/26 11:13:21;;;;;;;14.03;12.63;;;;;;;9.49;66.36;92402.47;5068746;28;20280;-90
2021/12/26 11:15:48;;;;;;;14.67;13.03;;;;;;;9.47;65.16;92412.41;5066211;28;20256;-91
2021/12/26 11:18:16;;;;;;;14.87;13.47;;;;;;;9.64;63.56;92390.06;5050686;28;20177;-91
2021/12/26 11:20:43;;;;;;;13.37;12.37;;;;;;;9.58;64.44;92412.03;5067757;28;20304;-90
2021/12/26 11:23:18;;;;;;;14.53;13.33;;;;;;;9.16;66.94;92390.28;5068024;28;20252;-88
2021/12/26 11:25:47;;;;;;;14.43;12.37;;;;;;;9.27;66.91;92413.38;5067287;28;20305;-89
2021/12/26 11:28:15;;;;;;;14.90;13.70;;;;;;;9.40;65.77;92401.53;5068229;28;20280;-91
2021/12/26 11:30:43;;;;;;;14.67;13.37;;;;;;;9.65;65.84;92383.00;5049809;28;20233;-92